Dades meteomassalio
Diari Summary for Octubre 30, 2017 Units:  Metric    English   Both
« Previous Day
Next Day »
Diari Semanal Mensual Anual Personalitzat
  Maxima: Minima: Mijana:
Temperatura: -17.8 °C -12.6 °C -9.5 °C
Rosada: -17.8 °C -15.8 °C -13.2 °C
Humitat: Humidity % 48 % 65 %
Velocitat del vent: 0 km/h 0 km/h 33 km/h
Racha vent: 0 km/h - -
Vent:- - SSW
Pressio: 0 hPa 34462.7 hPa -
Pluja: 0 mm    
Historical Graphs
 
 
Tabular Data for Octubre 30, 2017
Time Temperature Dew Point Pressure Wind Wind Speed Wind Gust Humidity Rainfall Rate (Hourly) solar Conditions
-17.8 °C -17.8 °C 0 hPa Calm     Humidity % 0 mm SolarRadiationWatts/m^2 W/m2 Conditions
00:01 -10.7 °C -13.2 °C 34625.2 hPa South 11.9 km/h 11.9 km/h 74 % 0 mm 0.0 W/m2 CLR
00:06 -10.7 °C -13.2 °C 34625.2 hPa South 20.9 km/h 20.9 km/h 74 % 0 mm 0.0 W/m2 CLR
00:11 -10.4 °C -13 °C 34625.2 hPa South 29.8 km/h 29.8 km/h 73 % 0 mm 0.0 W/m2 CLR
00:16 -10.4 °C -13 °C 34625.2 hPa South 41.7 km/h 41.7 km/h 73 % 0 mm 0.0 W/m2 CLR
00:21 -10.4 °C -13 °C 34611.7 hPa South 20.9 km/h 20.9 km/h 73 % 0 mm 0.0 W/m2 CLR
00:26 -10.4 °C -13 °C 34611.7 hPa South 23.8 km/h 23.8 km/h 73 % 0 mm 0.0 W/m2 CLR
00:31 -10.4 °C -13 °C 34611.7 hPa South 29.8 km/h 29.8 km/h 73 % 0 mm 0.0 W/m2 CLR
00:36 -10.4 °C -13.1 °C 34611.7 hPa South 29.8 km/h 29.8 km/h 72 % 0 mm 0.0 W/m2 CLR
00:41 -10.4 °C -13.1 °C 34611.7 hPa SSW 29.8 km/h 29.8 km/h 72 % 0 mm 0.0 W/m2 CLR
00:46 -10.4 °C -13 °C 34611.7 hPa South 41.7 km/h 41.7 km/h 73 % 0 mm 0.0 W/m2 CLR
00:51 -10.4 °C -13.1 °C 34611.7 hPa SSW 29.8 km/h 29.8 km/h 72 % 0 mm 0.0 W/m2 CLR
00:56 -10.4 °C -13 °C 34611.7 hPa SSW 32.8 km/h 32.8 km/h 73 % 0 mm 0.0 W/m2 CLR
01:01 -10.4 °C -13 °C 34611.7 hPa SSW 29.8 km/h 29.8 km/h 73 % 0 mm 0.0 W/m2 CLR
01:06 -10.4 °C -13 °C 34611.7 hPa South 41.7 km/h 41.7 km/h 73 % 0 mm 0.0 W/m2 CLR
01:11 -10.4 °C -13 °C 34611.7 hPa SSW 26.9 km/h 26.9 km/h 73 % 0 mm 0.0 W/m2 CLR
01:16 -10.4 °C -13 °C 34611.7 hPa South 35.7 km/h 35.7 km/h 73 % 0 mm 0.0 W/m2 CLR
01:21 -10.4 °C -13 °C 34611.7 hPa SSW 29.8 km/h 29.8 km/h 73 % 0 mm 0.0 W/m2 CLR
01:26 -10.4 °C -13 °C 34601.5 hPa South 32.8 km/h 32.8 km/h 73 % 0 mm 0.0 W/m2 CLR
01:31 -10.4 °C -13 °C 34601.5 hPa SSW 32.8 km/h 32.8 km/h 73 % 0 mm 0.0 W/m2 CLR
01:36 -10.7 °C -13.2 °C 34601.5 hPa South 38.8 km/h 38.8 km/h 74 % 0 mm 0.0 W/m2 CLR
01:41 -10.7 °C -13.3 °C 34601.5 hPa SW 29.8 km/h 29.8 km/h 73 % 0 mm 0.0 W/m2 CLR
01:46 -10.7 °C -13.3 °C 34601.5 hPa SSW 33.6 km/h 33.6 km/h 73 % 0 mm 0.0 W/m2 CLR
01:51 -10.7 °C -13.2 °C 34601.5 hPa South 35.7 km/h 35.7 km/h 74 % 0 mm 0.0 W/m2 CLR
01:56 -10.4 °C -12.9 °C 34601.5 hPa SSW 29.8 km/h 29.8 km/h 74 % 0 mm 0.0 W/m2 CLR
02:01 -10.4 °C -13 °C 34601.5 hPa SSE 41.7 km/h 41.7 km/h 73 % 0 mm 0.0 W/m2 CLR
02:06 -10.7 °C -13.2 °C 34601.5 hPa SSW 23.3 km/h 23.3 km/h 74 % 0 mm 0.0 W/m2 CLR
02:07 -10.7 °C -13.2 °C 34601.5 hPa South 23.8 km/h 23.8 km/h 74 % 0 mm 0.0 W/m2 CLR
02:12 -10.7 °C -13.3 °C 34601.5 hPa SSW 26.9 km/h 26.9 km/h 73 % 0 mm 0.0 W/m2 CLR
02:17 -10.4 °C -12.9 °C 34591.4 hPa South 32.8 km/h 32.8 km/h 74 % 0 mm 0.0 W/m2 CLR
02:22 -10.4 °C -12.9 °C 34591.4 hPa SSW 26.9 km/h 26.9 km/h 74 % 0 mm 0.0 W/m2 CLR
02:27 -10.4 °C -12.9 °C 34591.4 hPa SSW 38.8 km/h 38.8 km/h 74 % 0 mm 0.0 W/m2 CLR
02:32 -10.4 °C -12.9 °C 34591.4 hPa SW 32.8 km/h 32.8 km/h 74 % 0 mm 0.0 W/m2 CLR
02:37 -10.4 °C -12.9 °C 34591.4 hPa South 29.8 km/h 29.8 km/h 74 % 0 mm 0.0 W/m2 CLR
02:42 -10.4 °C -12.9 °C 34591.4 hPa South 20.9 km/h 20.9 km/h 74 % 0 mm 0.0 W/m2 CLR
02:47 -10.4 °C -12.9 °C 34591.4 hPa SW 38.8 km/h 38.8 km/h 74 % 0 mm 0.0 W/m2 CLR
02:52 -10.4 °C -12.9 °C 34591.4 hPa SSW 36.2 km/h 36.2 km/h 74 % 0 mm 0.0 W/m2 CLR
02:57 -10.4 °C -12.9 °C 34591.4 hPa SSW 38.8 km/h 38.8 km/h 74 % 0 mm 0.0 W/m2 CLR
03:02 -10.4 °C -12.9 °C 34577.8 hPa SSW 29.8 km/h 29.8 km/h 74 % 0 mm 0.0 W/m2 CLR
03:07 -10.4 °C -12.9 °C 34577.8 hPa SSW 35.7 km/h 35.7 km/h 74 % 0 mm 0.0 W/m2 CLR
03:12 -10.4 °C -13 °C 34577.8 hPa South 32.8 km/h 32.8 km/h 73 % 0 mm 0.0 W/m2 CLR
03:17 -10.4 °C -13 °C 34577.8 hPa South 26.9 km/h 26.9 km/h 73 % 0 mm 0.0 W/m2 CLR
03:22 -10.4 °C -13 °C 34577.8 hPa SSW 41.7 km/h 41.7 km/h 73 % 0 mm 0.0 W/m2 CLR
03:27 -10.1 °C -12.7 °C 34577.8 hPa SSW 26.9 km/h 26.9 km/h 73 % 0 mm 0.0 W/m2 CLR
03:32 -10.1 °C -12.7 °C 34577.8 hPa SSW 28.5 km/h 28.5 km/h 73 % 0 mm 0.0 W/m2 CLR
03:37 -10.4 °C -12.9 °C 34577.8 hPa South 44.7 km/h 44.7 km/h 74 % 0 mm 0.0 W/m2 CLR
03:42 -10.4 °C -12.9 °C 34577.8 hPa South 29.8 km/h 29.8 km/h 74 % 0 mm 0.0 W/m2 CLR
03:47 -10.4 °C -13 °C 34577.8 hPa SSW 29.8 km/h 29.8 km/h 73 % 0 mm 0.0 W/m2 CLR
03:52 -10.4 °C -13 °C 34577.8 hPa SSW 23.3 km/h 23.3 km/h 73 % 0 mm 0.0 W/m2 CLR
03:57 -10.1 °C -12.7 °C 34567.7 hPa SSW 35.7 km/h 35.7 km/h 73 % 0 mm 0.0 W/m2 CLR
04:02 -10.1 °C -12.7 °C 34567.7 hPa SSW 20.8 km/h 20.8 km/h 73 % 0 mm 0.0 W/m2 CLR
04:07 -10.1 °C -12.6 °C 34567.7 hPa South 29.8 km/h 29.8 km/h 74 % 0 mm 0.0 W/m2 CLR
04:13 -10.1 °C -12.6 °C 34567.7 hPa SSW 20.8 km/h 20.8 km/h 74 % 0 mm 0.0 W/m2 CLR
04:18 -10.1 °C -12.6 °C 34567.7 hPa SSW 29.8 km/h 29.8 km/h 74 % 0 mm 0.0 W/m2 CLR
04:20 -10.1 °C -12.6 °C 34567.7 hPa SSW 32.8 km/h 32.8 km/h 74 % 0 mm 0.0 W/m2 CLR
04:22 -10.1 °C -12.6 °C 34567.7 hPa South 35.7 km/h 35.7 km/h 74 % 0 mm 0.0 W/m2 CLR
04:23 -10.1 °C -12.6 °C 34567.7 hPa South 35.7 km/h 35.7 km/h 74 % 0 mm 0.0 W/m2 CLR
04:25 -10.1 °C -12.6 °C 34567.7 hPa South 50.7 km/h 50.7 km/h 74 % 0 mm 0.0 W/m2 CLR
04:30 -10.1 °C -12.7 °C 34567.7 hPa SSW 29.8 km/h 29.8 km/h 73 % 0 mm 0.0 W/m2 CLR
04:35 -10.1 °C -12.6 °C 34567.7 hPa SSW 26.9 km/h 26.9 km/h 74 % 0 mm 0.0 W/m2 CLR
04:40 -10.1 °C -12.6 °C 34567.7 hPa South 29.8 km/h 29.8 km/h 74 % 0 mm 0.0 W/m2 CLR
04:45 -10.1 °C -12.6 °C 34567.7 hPa South 38.8 km/h 38.8 km/h 74 % 0 mm 0.0 W/m2 CLR
04:46 -10.1 °C -12.6 °C 34567.7 hPa SW 29.8 km/h 29.8 km/h 74 % 0 mm 0.0 W/m2 CLR
04:51 -10.1 °C -12.6 °C 34567.7 hPa SSW 32.8 km/h 32.8 km/h 74 % 0 mm 0.0 W/m2 CLR
04:56 -10.1 °C -12.6 °C 34567.7 hPa SSW 29.8 km/h 29.8 km/h 74 % 0 mm 0.0 W/m2 CLR
05:01 -10.1 °C -12.6 °C 34567.7 hPa SSW 35.7 km/h 35.7 km/h 74 % 0 mm 0.0 W/m2 CLR
05:06 -10.1 °C -12.6 °C 34567.7 hPa SSW 44.7 km/h 44.7 km/h 74 % 0 mm 0.0 W/m2 CLR
05:11 -10.1 °C -12.6 °C 34567.7 hPa South 33.6 km/h 33.6 km/h 74 % 0 mm 0.0 W/m2 CLR
05:16 -10.1 °C -12.6 °C 34554.1 hPa SSE 32.8 km/h 32.8 km/h 74 % 0 mm 0.0 W/m2 CLR
05:21 -10.1 °C -12.6 °C 34554.1 hPa SSW 35.7 km/h 35.7 km/h 74 % 0 mm 0.0 W/m2 CLR
05:26 -10.1 °C -12.6 °C 34554.1 hPa SSW 41.7 km/h 41.7 km/h 74 % 0 mm 0.0 W/m2 CLR
05:31 -10.1 °C -12.4 °C 34554.1 hPa SW 29.8 km/h 29.8 km/h 75 % 0 mm 0.0 W/m2 CLR
05:36 -10.1 °C -12.4 °C 34567.7 hPa SSW 50.7 km/h 50.7 km/h 75 % 0 mm 0.0 W/m2 CLR
05:41 -10.1 °C -12.6 °C 34554.1 hPa South 38.8 km/h 38.8 km/h 74 % 0 mm 0.0 W/m2 CLR
05:46 -10.1 °C -12.4 °C 34567.7 hPa South 32.8 km/h 32.8 km/h 75 % 0 mm 0.0 W/m2 CLR
05:51 -10.1 °C -12.6 °C 34554.1 hPa SSW 29.8 km/h 29.8 km/h 74 % 0 mm 0.0 W/m2 CLR
05:56 -10.4 °C -12.8 °C 34554.1 hPa South 32.8 km/h 32.8 km/h 75 % 0 mm 0.0 W/m2 CLR
06:01 -10.4 °C -12.9 °C 34554.1 hPa SSW 35.7 km/h 35.7 km/h 74 % 0 mm 0.0 W/m2 CLR
06:06 -10.4 °C -12.9 °C 34554.1 hPa SSW 29.8 km/h 29.8 km/h 74 % 0 mm 0.0 W/m2 CLR
06:11 -10.4 °C -12.9 °C 34554.1 hPa South 51.8 km/h 51.8 km/h 74 % 0 mm 0.0 W/m2 CLR
06:12 -10.4 °C -12.9 °C 34554.1 hPa South 38.8 km/h 38.8 km/h 74 % 0 mm 0.0 W/m2 CLR
06:17 -10.4 °C -12.9 °C 34554.1 hPa South 38.8 km/h 38.8 km/h 74 % 0 mm 0.0 W/m2 CLR
06:22 -10.4 °C -12.9 °C 34554.1 hPa South 41.7 km/h 41.7 km/h 74 % 0 mm 0.0 W/m2 CLR
06:27 -10.4 °C -12.9 °C 34554.1 hPa SSW 35.7 km/h 35.7 km/h 74 % 0 mm 0.0 W/m2 CLR
06:32 -10.4 °C -12.9 °C 34554.1 hPa SSW 29.8 km/h 29.8 km/h 74 % 0 mm 0.0 W/m2 CLR
06:37 -10.4 °C -12.9 °C 34554.1 hPa SSW 29.8 km/h 29.8 km/h 74 % 0 mm 0.0 W/m2 CLR
06:42 -10.4 °C -12.9 °C 34554.1 hPa South 26.9 km/h 26.9 km/h 74 % 0 mm 0.0 W/m2 CLR
06:47 -10.4 °C -12.9 °C 34554.1 hPa SSW 29.8 km/h 29.8 km/h 74 % 0 mm 0.0 W/m2 CLR
06:52 -10.4 °C -12.9 °C 34554.1 hPa SSW 29.8 km/h 29.8 km/h 74 % 0 mm 0.0 W/m2 CLR
06:57 -10.4 °C -12.9 °C 34554.1 hPa SSW 32.8 km/h 32.8 km/h 74 % 0 mm 0.0 W/m2 CLR
07:02 -10.4 °C -12.9 °C 34554.1 hPa South 26.9 km/h 26.9 km/h 74 % 0 mm 0.0 W/m2 CLR
07:07 -10.4 °C -12.9 °C 34554.1 hPa South 29.8 km/h 29.8 km/h 74 % 0 mm 0.0 W/m2 CLR
07:12 -10.4 °C -13 °C 34554.1 hPa SSW 35.7 km/h 35.7 km/h 73 % 0 mm 0.0 W/m2 CLR
07:17 -10.4 °C -13 °C 34554.1 hPa SSW 26.9 km/h 26.9 km/h 73 % 0 mm 0.0 W/m2 CLR
07:22 -10.4 °C -13 °C 34554.1 hPa South 35.7 km/h 35.7 km/h 73 % 0 mm 0.0 W/m2 OVC
07:27 -10.4 °C -13 °C 34554.1 hPa SSW 32.8 km/h 32.8 km/h 73 % 0 mm 0.0 W/m2 OVC
07:32 -10.4 °C -13 °C 34554.1 hPa South 32.8 km/h 32.8 km/h 73 % 0 mm 5.0 W/m2 OVC
07:37 -10.4 °C -13 °C 34554.1 hPa SSW 29.8 km/h 29.8 km/h 73 % 0 mm 7.0 W/m2 OVC
07:42 -10.4 °C -13 °C 34554.1 hPa South 29.8 km/h 29.8 km/h 73 % 0 mm 9.0 W/m2 OVC
07:47 -10.4 °C -13 °C 34554.1 hPa SSW 32.8 km/h 32.8 km/h 73 % 0 mm 16.0 W/m2 OVC
07:52 -10.4 °C -13 °C 34554.1 hPa South 26.9 km/h 26.9 km/h 73 % 0 mm 16.0 W/m2 OVC
07:57 -10.4 °C -13 °C 34554.1 hPa SSW 29.8 km/h 29.8 km/h 73 % 0 mm 18.0 W/m2 OVC
08:02 -10.4 °C -13 °C 34554.1 hPa South 38.8 km/h 38.8 km/h 73 % 0 mm 23.0 W/m2 OVC
08:07 -10.4 °C -13 °C 34554.1 hPa SSW 29.8 km/h 29.8 km/h 73 % 0 mm 23.0 W/m2 OVC
08:12 -10.7 °C -13.3 °C 34554.1 hPa South 29.8 km/h 29.8 km/h 73 % 0 mm 28.0 W/m2 OVC
08:17 -10.4 °C -13 °C 34554.1 hPa South 32.8 km/h 32.8 km/h 73 % 0 mm 56.0 W/m2 OVC
08:27 -10.4 °C -13 °C 34567.7 hPa SSW 38.8 km/h 38.8 km/h 73 % 0 mm 47.0 W/m2 OVC
08:32 -10.4 °C -13 °C 34567.7 hPa SW 38.8 km/h 38.8 km/h 73 % 0 mm 60.0 W/m2 BKN
08:37 -10.1 °C -12.7 °C 34554.1 hPa South 26.9 km/h 26.9 km/h 73 % 0 mm 63.0 W/m2 SCT
08:42 -10.1 °C -12.7 °C 34554.1 hPa South 29.8 km/h 29.8 km/h 73 % 0 mm 53.0 W/m2 SCT
08:47 -10.1 °C -12.7 °C 34567.7 hPa SW 44.1 km/h 44.1 km/h 73 % 0 mm 62.0 W/m2 SCT
08:52 -10.1 °C -12.8 °C 34567.7 hPa South 38.8 km/h 38.8 km/h 72 % 0 mm 74.0 W/m2 SCT
08:57 -10.1 °C -12.8 °C 34567.7 hPa South 32.8 km/h 32.8 km/h 72 % 0 mm 90.0 W/m2 FEW
09:02 -10.1 °C -12.8 °C 34567.7 hPa SSW 44.1 km/h 44.1 km/h 72 % 0 mm 91.0 W/m2 CLR
09:07 -9.8 °C -12.6 °C 34567.7 hPa SW 41.7 km/h 41.7 km/h 72 % 0 mm 105.0 W/m2 CLR
09:12 -9.8 °C -12.7 °C 34567.7 hPa South 38.8 km/h 38.8 km/h 71 % 0 mm 120.0 W/m2 CLR
09:17 -9.8 °C -12.7 °C 34567.7 hPa SSW 28.5 km/h 28.5 km/h 71 % 0 mm 98.0 W/m2 CLR
09:22 -9.8 °C -12.7 °C 34567.7 hPa SSW 44.7 km/h 44.7 km/h 71 % 0 mm 116.0 W/m2 CLR
09:27 -9.8 °C -12.7 °C 34567.7 hPa SSW 38.8 km/h 38.8 km/h 71 % 0 mm 139.0 W/m2 CLR
09:32 -9.8 °C -12.7 °C 34567.7 hPa SSW 35.7 km/h 35.7 km/h 71 % 0 mm 128.0 W/m2 CLR
09:37 -9.8 °C -12.7 °C 34567.7 hPa SSW 26.9 km/h 26.9 km/h 71 % 0 mm 148.0 W/m2 CLR
09:42 -9.8 °C -12.7 °C 34567.7 hPa SW 31.1 km/h 31.1 km/h 71 % 0 mm 146.0 W/m2 CLR
09:47 -9.4 °C -12.4 °C 34567.7 hPa SW 41.7 km/h 41.7 km/h 70 % 0 mm 139.0 W/m2 CLR
09:52 -9.4 °C -12.4 °C 34567.7 hPa South 50.7 km/h 50.7 km/h 70 % 0 mm 160.0 W/m2 CLR
09:57 -9.4 °C -12.4 °C 34554.1 hPa WSW 38.8 km/h 38.8 km/h 70 % 0 mm 192.0 W/m2 CLR
10:02 -9.4 °C -12.4 °C 34567.7 hPa SSW 47.6 km/h 47.6 km/h 70 % 0 mm 174.0 W/m2 CLR
10:07 -9.4 °C -12.4 °C 34567.7 hPa SW 50.7 km/h 50.7 km/h 70 % 0 mm 167.0 W/m2 CLR
10:12 -9.4 °C -12.4 °C 34567.7 hPa SSW 50.7 km/h 50.7 km/h 70 % 0 mm 185.0 W/m2 CLR
10:17 -9.4 °C -12.6 °C 34567.7 hPa SW 41.7 km/h 41.7 km/h 69 % 0 mm 179.0 W/m2 CLR
10:22 -9.1 °C -12.2 °C 34567.7 hPa SW 47.6 km/h 47.6 km/h 70 % 0 mm 181.0 W/m2 CLR
10:27 -9.1 °C -12.3 °C 34567.7 hPa SW 41.7 km/h 41.7 km/h 69 % 0 mm 185.0 W/m2 CLR
10:32 -9.1 °C -12.3 °C 34554.1 hPa SSW 35.7 km/h 35.7 km/h 69 % 0 mm 232.0 W/m2 CLR
10:37 -9.1 °C -12.3 °C 34554.1 hPa SW 36.2 km/h 36.2 km/h 69 % 0 mm 176.0 W/m2 CLR
10:42 -9.1 °C -12.4 °C 34554.1 hPa SSW 50.7 km/h 50.7 km/h 68 % 0 mm 206.0 W/m2 CLR
10:47 -8.8 °C -12.1 °C 34554.1 hPa SW 47.6 km/h 47.6 km/h 68 % 0 mm 193.0 W/m2 CLR
10:57 -8.8 °C -12.2 °C 34554.1 hPa SW 50.7 km/h 50.7 km/h 67 % 0 mm 135.0 W/m2 CLR
11:02 -9.1 °C -12.6 °C 34554.1 hPa SSW 47.6 km/h 47.6 km/h 67 % 0 mm 151.0 W/m2 CLR
11:07 -9.1 °C -12.6 °C 34554.1 hPa SW 38.8 km/h 38.8 km/h 67 % 0 mm 151.0 W/m2 CLR
11:12 -8.8 °C -12.5 °C 34554.1 hPa SSW 41.7 km/h 41.7 km/h 65 % 0 mm 197.0 W/m2 CLR
11:17 -8.8 °C -12.5 °C 34554.1 hPa SSW 41.7 km/h 41.7 km/h 65 % 0 mm 155.0 W/m2 CLR
11:22 -8.8 °C -12.5 °C 34544 hPa SSW 35.7 km/h 35.7 km/h 65 % 0 mm 128.0 W/m2 CLR
11:27 -8.8 °C -12.5 °C 34544 hPa SSW 44.7 km/h 44.7 km/h 65 % 0 mm 118.0 W/m2 CLR
11:32 -8.8 °C -12.5 °C 34544 hPa SSW 32.8 km/h 32.8 km/h 65 % 0 mm 167.0 W/m2 CLR
11:37 -8.8 °C -12.6 °C 34544 hPa SSW 29.8 km/h 29.8 km/h 64 % 0 mm 169.0 W/m2 CLR
11:42 -8.8 °C -12.6 °C 34544 hPa SSW 38.8 km/h 38.8 km/h 64 % 0 mm 330.0 W/m2 CLR
11:47 -8.2 °C -12.2 °C 34544 hPa SW 41.4 km/h 41.4 km/h 63 % 0 mm 183.0 W/m2 CLR
11:52 -8.2 °C -12.2 °C 34533.8 hPa South 29.8 km/h 29.8 km/h 63 % 0 mm 550.0 W/m2 CLR
11:57 -7.9 °C -12 °C 34533.8 hPa SW 36.2 km/h 36.2 km/h 62 % 0 mm 267.0 W/m2 CLR
12:02 -7.9 °C -12.1 °C 34533.8 hPa SW 41.7 km/h 41.7 km/h 61 % 0 mm 269.0 W/m2 CLR
12:08 -7.9 °C -12.1 °C 34533.8 hPa SSW 41.4 km/h 41.4 km/h 61 % 0 mm 301.0 W/m2 CLR
12:13 -8.2 °C -12.6 °C 34533.8 hPa SSW 38.8 km/h 38.8 km/h 60 % 0 mm 288.0 W/m2 CLR
12:18 -7.9 °C -12.3 °C 34520.3 hPa SSW 44.7 km/h 44.7 km/h 60 % 0 mm 371.0 W/m2 CLR
12:23 -7.6 °C -12.1 °C 34520.3 hPa SSW 47.6 km/h 47.6 km/h 59 % 0 mm 316.0 W/m2 CLR
12:28 -7.3 °C -11.8 °C 34520.3 hPa SSW 35.7 km/h 35.7 km/h 59 % 0 mm 793.0 W/m2 CLR
12:33 -7 °C -11.8 °C 34520.3 hPa WSW 33.6 km/h 33.6 km/h 57 % 0 mm 243.0 W/m2 CLR
12:38 -7.3 °C -12 °C 34510.1 hPa SW 38.8 km/h 38.8 km/h 58 % 0 mm 253.0 W/m2 CLR
12:43 -7.6 °C -12.1 °C 34510.1 hPa SSW 47.6 km/h 47.6 km/h 59 % 0 mm 174.0 W/m2 CLR
12:48 -7.9 °C -12.4 °C 34510.1 hPa SSW 44.7 km/h 44.7 km/h 59 % 0 mm 612.0 W/m2 CLR
12:53 -7.3 °C -12 °C 34510.1 hPa South 32.8 km/h 32.8 km/h 58 % 0 mm 613.0 W/m2 CLR
12:58 -7.3 °C -12.3 °C 34510.1 hPa South 47.6 km/h 47.6 km/h 56 % 0 mm 647.0 W/m2 CLR
13:03 -7.3 °C -12.3 °C 34496.6 hPa South 53.6 km/h 53.6 km/h 56 % 0 mm 584.0 W/m2 CLR
13:08 -7.3 °C -12.1 °C 34510.1 hPa SSW 41.4 km/h 41.4 km/h 57 % 0 mm 596.0 W/m2 CLR
13:13 -7.3 °C -12.1 °C 34496.6 hPa SSW 41.7 km/h 41.7 km/h 57 % 0 mm 455.0 W/m2 CLR
13:18 -7 °C -12.1 °C 34496.6 hPa SSW 44.7 km/h 44.7 km/h 55 % 0 mm 116.0 W/m2 CLR
13:23 -7 °C -12 °C 34496.6 hPa SSW 44.7 km/h 44.7 km/h 56 % 0 mm 563.0 W/m2 CLR
13:28 -7 °C -12.1 °C 34496.6 hPa South 44.1 km/h 44.1 km/h 55 % 0 mm 563.0 W/m2 CLR
13:33 -7 °C -12.1 °C 34486.4 hPa SSW 35.7 km/h 35.7 km/h 55 % 0 mm 575.0 W/m2 CLR
13:38 -6.7 °C -11.8 °C 34486.4 hPa WSW 38.8 km/h 38.8 km/h 55 % 0 mm 612.0 W/m2 CLR
13:43 -6.7 °C -12 °C 34486.4 hPa SW 35.7 km/h 35.7 km/h 54 % 0 mm 633.0 W/m2 CLR
13:48 -6.3 °C -11.8 °C 34486.4 hPa West 50.7 km/h 50.7 km/h 53 % 0 mm 587.0 W/m2 CLR
13:53 -6.7 °C -12 °C 34486.4 hPa SW 23.8 km/h 23.8 km/h 54 % 0 mm 91.0 W/m2 CLR
13:58 -7 °C -12.4 °C 34486.4 hPa SW 32.8 km/h 32.8 km/h 53 % 0 mm 555.0 W/m2 CLR
14:03 -7 °C -12.4 °C 34486.4 hPa SW 32.8 km/h 32.8 km/h 53 % 0 mm 536.0 W/m2 CLR
14:08 -6.7 °C -12.3 °C 34486.4 hPa SSW 47.6 km/h 47.6 km/h 52 % 0 mm 554.0 W/m2 CLR
14:13 -7 °C -12.6 °C 34486.4 hPa SSW 29.8 km/h 29.8 km/h 52 % 0 mm 517.0 W/m2 CLR
14:18 -6.7 °C -12.3 °C 34476.3 hPa South 44.7 km/h 44.7 km/h 52 % 0 mm 529.0 W/m2 CLR
14:23 -6.7 °C -12.3 °C 34476.3 hPa WSW 38.8 km/h 38.8 km/h 52 % 0 mm 571.0 W/m2 CLR
14:28 -6.7 °C -12.3 °C 34476.3 hPa West 41.4 km/h 41.4 km/h 52 % 0 mm 510.0 W/m2 CLR
14:33 -6.7 °C -12.3 °C 34476.3 hPa SW 44.7 km/h 44.7 km/h 52 % 0 mm 489.0 W/m2 CLR
14:38 -6.7 °C -12.3 °C 34476.3 hPa WSW 38.8 km/h 38.8 km/h 52 % 0 mm 492.0 W/m2 CLR
14:43 -6.7 °C -12.3 °C 34476.3 hPa SW 36.2 km/h 36.2 km/h 52 % 0 mm 476.0 W/m2 CLR
14:48 -6.7 °C -12.4 °C 34476.3 hPa SW 38.8 km/h 38.8 km/h 51 % 0 mm 473.0 W/m2 CLR
14:53 -6.3 °C -12.2 °C 34476.3 hPa SW 44.7 km/h 44.7 km/h 51 % 0 mm 469.0 W/m2 CLR
14:58 -6.3 °C -12.2 °C 34476.3 hPa SSW 44.7 km/h 44.7 km/h 51 % 0 mm 439.0 W/m2 CLR
15:03 -6.7 °C -12.4 °C 34476.3 hPa SW 38.8 km/h 38.8 km/h 51 % 0 mm 427.0 W/m2 CLR
15:08 -6.7 °C -12.4 °C 34476.3 hPa SSW 38.8 km/h 38.8 km/h 51 % 0 mm 434.0 W/m2 CLR
15:13 -6.7 °C -12.4 °C 34476.3 hPa SSW 35.7 km/h 35.7 km/h 51 % 0 mm 417.0 W/m2 CLR
15:16 -6.7 °C -12.4 °C 34476.3 hPa SW 38.8 km/h 38.8 km/h 51 % 0 mm 417.0 W/m2 CLR
15:21 -6.7 °C -12.4 °C 34476.3 hPa South 35.7 km/h 35.7 km/h 51 % 0 mm 403.0 W/m2 CLR
15:26 -6.7 °C -12.4 °C 34462.7 hPa SSW 29.8 km/h 29.8 km/h 51 % 0 mm 373.0 W/m2 CLR
15:31 -6.7 °C -12.6 °C 34462.7 hPa SW 35.7 km/h 35.7 km/h 50 % 0 mm 367.0 W/m2 CLR
15:36 -6.3 °C -12.3 °C 34462.7 hPa SSW 41.7 km/h 41.7 km/h 50 % 0 mm 357.0 W/m2 CLR
15:41 -6.7 °C -12.6 °C 34476.3 hPa SSW 32.8 km/h 32.8 km/h 50 % 0 mm 348.0 W/m2 CLR
15:46 -6.7 °C -12.6 °C 34476.3 hPa SSW 38.8 km/h 38.8 km/h 50 % 0 mm 325.0 W/m2 CLR
15:51 -6.7 °C -12.6 °C 34462.7 hPa SSW 29.8 km/h 29.8 km/h 50 % 0 mm 309.0 W/m2 CLR
15:56 -6.7 °C -12.8 °C 34476.3 hPa SSW 38.8 km/h 38.8 km/h 49 % 0 mm 304.0 W/m2 CLR
16:01 -6.7 °C -12.8 °C 34476.3 hPa SSW 32.8 km/h 32.8 km/h 49 % 0 mm 297.0 W/m2 CLR
16:03 -6.7 °C -12.8 °C 34476.3 hPa SSW 29.8 km/h 29.8 km/h 49 % 0 mm 292.0 W/m2 CLR
16:08 -6.7 °C -12.8 °C 34476.3 hPa SW 41.7 km/h 41.7 km/h 49 % 0 mm 267.0 W/m2 CLR
16:13 -6.7 °C -12.8 °C 34476.3 hPa SSW 44.7 km/h 44.7 km/h 49 % 0 mm 229.0 W/m2 CLR
16:18 -7 °C -13.1 °C 34476.3 hPa SW 36.2 km/h 36.2 km/h 49 % 0 mm 220.0 W/m2 CLR
16:23 -7 °C -13.1 °C 34476.3 hPa SSW 29.8 km/h 29.8 km/h 49 % 0 mm 220.0 W/m2 CLR
16:28 -7 °C -13.2 °C 34476.3 hPa SW 29.8 km/h 29.8 km/h 48 % 0 mm 209.0 W/m2 CLR
16:33 -7 °C -13.1 °C 34476.3 hPa SSW 36.2 km/h 36.2 km/h 49 % 0 mm 183.0 W/m2 CLR
16:38 -7 °C -13.1 °C 34486.4 hPa SW 32.8 km/h 32.8 km/h 49 % 0 mm 172.0 W/m2 CLR
16:43 -7 °C -13.1 °C 34476.3 hPa West 29.8 km/h 29.8 km/h 49 % 0 mm 151.0 W/m2 CLR
16:58 -7.3 °C -13.2 °C 34486.4 hPa SW 38.8 km/h 38.8 km/h 50 % 0 mm 95.0 W/m2 CLR
17:03 -7.3 °C -13.2 °C 34486.4 hPa SW 35.7 km/h 35.7 km/h 50 % 0 mm 84.0 W/m2 CLR
17:08 -7.6 °C -13.3 °C 34486.4 hPa SSW 35.7 km/h 35.7 km/h 51 % 0 mm 65.0 W/m2 SCT
17:13 -7.6 °C -13.2 °C 34486.4 hPa SSW 32.8 km/h 32.8 km/h 52 % 0 mm 58.0 W/m2 SCT
17:18 -7.6 °C -13.3 °C 34486.4 hPa SSW 29.8 km/h 29.8 km/h 51 % 0 mm 51.0 W/m2 SCT
17:23 -7.6 °C -13.3 °C 34486.4 hPa SSW 29.8 km/h 29.8 km/h 51 % 0 mm 42.0 W/m2 BKN
17:28 -7.9 °C -13.6 °C 34486.4 hPa SW 41.7 km/h 41.7 km/h 51 % 0 mm 32.0 W/m2 BKN
17:33 -7.9 °C -13.4 °C 34496.6 hPa WSW 36.2 km/h 36.2 km/h 52 % 0 mm 25.0 W/m2 BKN
17:43 -7.9 °C -13.4 °C 34496.6 hPa SW 29.8 km/h 29.8 km/h 52 % 0 mm 16.0 W/m2 BKN
17:48 -8.2 °C -13.7 °C 34510.1 hPa SSW 23.8 km/h 23.8 km/h 52 % 0 mm 12.0 W/m2 BKN
17:53 -8.2 °C -13.7 °C 34510.1 hPa SW 18.2 km/h 18.2 km/h 52 % 0 mm 7.0 W/m2 BKN
17:58 -8.5 °C -14 °C 34510.1 hPa SSW 26.9 km/h 26.9 km/h 52 % 0 mm 5.0 W/m2 OVC
18:03 -8.5 °C -13.8 °C 34510.1 hPa SSW 15 km/h 15 km/h 53 % 0 mm 0.0 W/m2 CLR
18:08 -8.8 °C -14.2 °C 34510.1 hPa SW 26.9 km/h 26.9 km/h 53 % 0 mm 0.0 W/m2 CLR
18:13 -8.8 °C -14.2 °C 34520.3 hPa SSW 18.2 km/h 18.2 km/h 53 % 0 mm 0.0 W/m2 CLR
18:18 -9.1 °C -14.3 °C 34520.3 hPa Calm     54 % 0 mm 0.0 W/m2 CLR
18:23 -9.1 °C -14.1 °C 34520.3 hPa Calm     55 % 0 mm 0.0 W/m2 CLR
18:28 -9.4 °C -14.4 °C 34520.3 hPa SW 23.8 km/h 23.8 km/h 55 % 0 mm 0.0 W/m2 CLR
18:33 -9.4 °C -14.4 °C 34533.8 hPa SW 6 km/h 6 km/h 55 % 0 mm 0.0 W/m2 CLR
18:38 -9.4 °C -14.3 °C 34533.8 hPa SSW 26.9 km/h 26.9 km/h 56 % 0 mm 0.0 W/m2 CLR
18:43 -9.1 °C -14 °C 34533.8 hPa SSW 23.8 km/h 23.8 km/h 56 % 0 mm 0.0 W/m2 CLR
18:48 -9.1 °C -14 °C 34533.8 hPa SSW 20.9 km/h 20.9 km/h 56 % 0 mm 0.0 W/m2 CLR
18:53 -9.4 °C -14.3 °C 34544 hPa WSW 23.8 km/h 23.8 km/h 56 % 0 mm 0.0 W/m2 CLR
18:58 -9.4 °C -14.3 °C 34544 hPa SW 20.9 km/h 20.9 km/h 56 % 0 mm 0.0 W/m2 CLR
19:03 -9.4 °C -14.1 °C 34544 hPa SSW 23.8 km/h 23.8 km/h 57 % 0 mm 0.0 W/m2 CLR
19:08 -9.8 °C -14.4 °C 34554.1 hPa SW 28.5 km/h 28.5 km/h 57 % 0 mm 0.0 W/m2 CLR
19:13 -9.8 °C -14.4 °C 34554.1 hPa SW 38.8 km/h 38.8 km/h 57 % 0 mm 0.0 W/m2 CLR
19:18 -9.4 °C -14.1 °C 34567.7 hPa SW 29.8 km/h 29.8 km/h 57 % 0 mm 0.0 W/m2 CLR
19:23 -9.4 °C -14 °C 34567.7 hPa SW 35.7 km/h 35.7 km/h 58 % 0 mm 0.0 W/m2 CLR
19:28 -9.4 °C -14 °C 34567.7 hPa SSW 32.8 km/h 32.8 km/h 58 % 0 mm 0.0 W/m2 CLR
19:33 -9.4 °C -13.8 °C 34577.8 hPa SSW 29.8 km/h 29.8 km/h 59 % 0 mm 0.0 W/m2 CLR
19:38 -9.4 °C -13.8 °C 34577.8 hPa SW 26.9 km/h 26.9 km/h 59 % 0 mm 0.0 W/m2 CLR
19:43 -9.8 °C -14 °C 34577.8 hPa SW 32.8 km/h 32.8 km/h 60 % 0 mm 0.0 W/m2 CLR
19:48 -9.8 °C -14 °C 34577.8 hPa SSW 50.7 km/h 50.7 km/h 60 % 0 mm 0.0 W/m2 CLR
19:53 -9.8 °C -14 °C 34577.8 hPa SSW 29.8 km/h 29.8 km/h 60 % 0 mm 0.0 W/m2 CLR
19:58 -10.1 °C -14.2 °C 34577.8 hPa SSW 32.8 km/h 32.8 km/h 61 % 0 mm 0.0 W/m2 CLR
20:03 -9.8 °C -14 °C 34591.4 hPa SSW 35.7 km/h 35.7 km/h 60 % 0 mm 0.0 W/m2 CLR
20:08 -9.8 °C -13.9 °C 34591.4 hPa SSW 29.8 km/h 29.8 km/h 61 % 0 mm 0.0 W/m2 CLR
20:13 -10.1 °C -14.2 °C 34591.4 hPa SSW 41.4 km/h 41.4 km/h 61 % 0 mm 0.0 W/m2 CLR
20:18 -10.1 °C -14.2 °C 34591.4 hPa SSW 32.8 km/h 32.8 km/h 61 % 0 mm 0.0 W/m2 CLR
20:23 -10.1 °C -14.2 °C 34591.4 hPa SSW 29.8 km/h 29.8 km/h 61 % 0 mm 0.0 W/m2 CLR
20:28 -10.1 °C -14.2 °C 34601.5 hPa SSW 32.8 km/h 32.8 km/h 61 % 0 mm 0.0 W/m2 CLR
20:38 -10.1 °C -14.1 °C 34601.5 hPa SW 32.8 km/h 32.8 km/h 62 % 0 mm 0.0 W/m2 CLR
20:43 -10.1 °C -14.1 °C 34601.5 hPa SW 25.9 km/h 25.9 km/h 62 % 0 mm 0.0 W/m2 CLR
20:48 -10.4 °C -14.3 °C 34611.7 hPa SSE 29.8 km/h 29.8 km/h 62 % 0 mm 0.0 W/m2 CLR
20:53 -10.4 °C -14.2 °C 34611.7 hPa SSW 38.8 km/h 38.8 km/h 63 % 0 mm 0.0 W/m2 CLR
20:58 -10.4 °C -14.2 °C 34611.7 hPa SSW 26.9 km/h 26.9 km/h 63 % 0 mm 0.0 W/m2 CLR
21:03 -10.4 °C -14.2 °C 34611.7 hPa SSW 29.8 km/h 29.8 km/h 63 % 0 mm 0.0 W/m2 CLR
21:08 -10.4 °C -14.2 °C 34625.2 hPa SSW 26.9 km/h 26.9 km/h 63 % 0 mm 0.0 W/m2 CLR
21:13 -10.4 °C -14.1 °C 34625.2 hPa SSW 26.9 km/h 26.9 km/h 64 % 0 mm 0.0 W/m2 CLR
21:18 -10.7 °C -14.4 °C 34625.2 hPa SSW 29.8 km/h 29.8 km/h 64 % 0 mm 0.0 W/m2 CLR
21:23 -10.7 °C -14.4 °C 34625.2 hPa SSW 23.8 km/h 23.8 km/h 64 % 0 mm 0.0 W/m2 CLR
21:28 -10.7 °C -14.4 °C 34625.2 hPa South 29.8 km/h 29.8 km/h 64 % 0 mm 0.0 W/m2 CLR
21:33 -10.7 °C -14.3 °C 34635.4 hPa South 28.5 km/h 28.5 km/h 65 % 0 mm 0.0 W/m2 CLR
21:38 -10.7 °C -14.3 °C 34635.4 hPa SSW 25.9 km/h 25.9 km/h 65 % 0 mm 0.0 W/m2 CLR
21:43 -10.7 °C -14.3 °C 34635.4 hPa South 23.8 km/h 23.8 km/h 65 % 0 mm 0.0 W/m2 CLR
21:48 -10.7 °C -14.3 °C 34645.6 hPa SSW 29.8 km/h 29.8 km/h 65 % 0 mm 0.0 W/m2 CLR
21:53 -11 °C -14.6 °C 34645.6 hPa South 18.2 km/h 18.2 km/h 65 % 0 mm 0.0 W/m2 CLR
21:59 -11 °C -14.4 °C 34645.6 hPa South 12.9 km/h 12.9 km/h 66 % 0 mm 0.0 W/m2 CLR
22:04 -11 °C -14.4 °C 34645.6 hPa South 11.9 km/h 11.9 km/h 66 % 0 mm 0.0 W/m2 CLR
22:09 -11.3 °C -14.7 °C 34659.1 hPa SSW 20.9 km/h 20.9 km/h 66 % 0 mm 0.0 W/m2 CLR
22:14 -11.3 °C -14.7 °C 34659.1 hPa SSW 15 km/h 15 km/h 66 % 0 mm 0.0 W/m2 CLR
22:19 -11.6 °C -15 °C 34659.1 hPa SSW 28.5 km/h 28.5 km/h 66 % 0 mm 0.0 W/m2 CLR
22:24 -11.6 °C -15 °C 34659.1 hPa SSW 20.9 km/h 20.9 km/h 66 % 0 mm 0.0 W/m2 CLR
22:29 -11.6 °C -14.9 °C 34669.3 hPa SSE 31.1 km/h 31.1 km/h 67 % 0 mm 0.0 W/m2 CLR
22:34 -11.6 °C -14.9 °C 34659.1 hPa SSW 29.8 km/h 29.8 km/h 67 % 0 mm 0.0 W/m2 CLR
22:39 -11.6 °C -15 °C 34669.3 hPa South 23.8 km/h 23.8 km/h 66 % 0 mm 0.0 W/m2 CLR
22:44 -11.6 °C -14.9 °C 34669.3 hPa SSW 26.9 km/h 26.9 km/h 67 % 0 mm 0.0 W/m2 CLR
22:49 -11.6 °C -14.9 °C 34669.3 hPa SW 32.8 km/h 32.8 km/h 67 % 0 mm 0.0 W/m2 CLR
22:54 -11.6 °C -14.9 °C 34669.3 hPa SSW 9 km/h 9 km/h 67 % 0 mm 0.0 W/m2 CLR
23:04 -11.9 °C -15.2 °C 34669.3 hPa South 23.8 km/h 23.8 km/h 67 % 0 mm 0.0 W/m2 CLR
23:09 -12.2 °C -15.4 °C 34669.3 hPa South 23.8 km/h 23.8 km/h 67 % 0 mm 0.0 W/m2 CLR
23:14 -12.2 °C -15.4 °C 34669.3 hPa South 20.9 km/h 20.9 km/h 67 % 0 mm 0.0 W/m2 CLR
23:19 -12.2 °C -15.4 °C 34669.3 hPa SSE 23.8 km/h 23.8 km/h 67 % 0 mm 0.0 W/m2 CLR
23:24 -12.6 °C -15.8 °C 34669.3 hPa SSW 38.8 km/h 38.8 km/h 67 % 0 mm 0.0 W/m2 CLR
23:29 -12.6 °C -15.8 °C 34669.3 hPa SSW 20.9 km/h 20.9 km/h 67 % 0 mm 0.0 W/m2 CLR
23:34 -12.6 °C -15.8 °C 34669.3 hPa SSW 23.8 km/h 23.8 km/h 67 % 0 mm 0.0 W/m2 CLR
23:39 -12.6 °C -15.8 °C 34669.3 hPa SSW 26.9 km/h 26.9 km/h 67 % 0 mm 0.0 W/m2 CLR
23:44 -12.6 °C -15.8 °C 34669.3 hPa SSW 20.9 km/h 20.9 km/h 67 % 0 mm 0.0 W/m2 CLR
23:49 -12.6 °C -15.8 °C 34682.8 hPa SSW 23.8 km/h 23.8 km/h 67 % 0 mm 0.0 W/m2 CLR
23:54 -12.6 °C -15.8 °C 34682.8 hPa SSW 20.9 km/h 20.9 km/h 67 % 0 mm 0.0 W/m2 CLR
23:59 -12.2 °C -15.4 °C 34682.8 hPa SSW 15.6 km/h 15.6 km/h 67 % 0 mm 0.0 W/m2 CLR
Lo Temps de Massalio
Compliments of Weather Underground - 1.25 mb